createdAt,value
2019-01-27T00:01:16.629Z,99436.31
2019-01-27T00:03:48.434Z,99432.17
2019-01-27T00:06:20.145Z,99432.05
2019-01-27T00:08:51.794Z,99421.79
2019-01-27T00:11:23.521Z,99423.72
2019-01-27T00:13:55.180Z,99420.95
2019-01-27T00:16:26.777Z,99412.09
2019-01-27T00:18:58.429Z,99402.27
2019-01-27T00:21:30.397Z,99397.84
2019-01-27T00:24:02.231Z,99394.98
2019-01-27T00:26:33.902Z,99387.86
2019-01-27T00:29:05.798Z,99376.89
2019-01-27T00:31:37.471Z,99374.41
2019-01-27T00:34:09.136Z,99364.28
2019-01-27T00:36:40.726Z,99365.27
2019-01-27T00:39:12.358Z,99371.28
2019-01-27T00:41:44.277Z,99366.92
2019-01-27T00:44:16.159Z,99361.20
2019-01-27T00:46:48.820Z,99361.90
2019-01-27T00:49:20.400Z,99360.19
2019-01-27T00:51:52.065Z,99359.03
2019-01-27T00:54:23.707Z,99362.67
2019-01-27T00:56:55.350Z,99357.28
2019-01-27T00:59:26.986Z,99353.09
2019-01-27T01:01:59.651Z,99352.41
2019-01-27T01:04:31.229Z,99355.56
2019-01-27T01:07:02.808Z,99362.52
2019-01-27T01:09:34.438Z,99361.03
2019-01-27T01:12:06.125Z,99351.21
2019-01-27T01:14:37.763Z,99349.98
2019-01-27T01:17:09.354Z,99353.84
2019-01-27T01:19:41.001Z,99345.89
2019-01-27T01:22:12.692Z,99345.70
2019-01-27T01:24:44.280Z,99344.25
2019-01-27T01:27:16.197Z,99340.45
2019-01-27T01:29:48.136Z,99340.05
2019-01-27T01:32:19.744Z,99334.30
2019-01-27T01:34:51.388Z,99329.22
2019-01-27T01:37:23.183Z,99324.77
2019-01-27T01:39:54.796Z,99321.14
2019-01-27T01:42:26.443Z,99315.07
2019-01-27T01:44:58.028Z,99310.86
2019-01-27T01:47:29.625Z,99313.89
2019-01-27T01:50:01.253Z,99305.11
2019-01-27T01:52:32.888Z,99304.83
2019-01-27T01:55:04.500Z,99289.88
2019-01-27T01:57:36.185Z,99291.31
2019-01-27T02:00:09.698Z,99284.09
2019-01-27T02:02:41.366Z,99280.51
2019-01-27T02:05:13.234Z,99282.67
2019-01-27T02:07:45.011Z,99276.05
2019-01-27T02:10:19.359Z,99278.17
2019-01-27T02:12:51.542Z,99278.70
2019-01-27T02:15:56.689Z,99275.31
2019-01-27T02:18:28.404Z,99271.48
2019-01-27T02:21:00.013Z,99275.00
2019-01-27T02:23:31.709Z,99266.18
2019-01-27T02:26:03.334Z,99266.19
2019-01-27T02:28:35.989Z,99267.13
2019-01-27T02:31:07.641Z,99258.69
2019-01-27T02:33:39.242Z,99256.05
2019-01-27T02:36:10.872Z,99249.22
2019-01-27T02:38:42.525Z,99243.95
2019-01-27T02:41:14.369Z,99247.92
2019-01-27T02:43:47.420Z,99241.65
2019-01-27T02:46:19.361Z,99234.38
2019-01-27T02:48:51.301Z,99234.11
2019-01-27T02:51:22.870Z,99230.47
2019-01-27T02:53:54.541Z,99233.28
2019-01-27T02:56:26.189Z,99224.44
2019-01-27T02:58:57.840Z,99222.34
2019-01-27T03:01:29.476Z,99217.05
2019-01-27T03:04:01.144Z,99212.80
2019-01-27T03:06:40.196Z,99212.14
2019-01-27T03:09:26.870Z,99198.31
2019-01-27T03:11:58.434Z,99197.00
2019-01-27T03:14:30.094Z,99197.86
2019-01-27T03:17:01.741Z,99191.70
2019-01-27T03:19:33.388Z,99187.53
2019-01-27T03:22:04.946Z,99179.97
2019-01-27T03:24:38.010Z,99173.17
2019-01-27T03:27:09.635Z,99165.20
2019-01-27T03:29:41.288Z,99160.69
2019-01-27T03:32:12.933Z,99160.50
2019-01-27T03:34:44.638Z,99158.60
2019-01-27T03:37:16.255Z,99157.88
2019-01-27T03:39:48.248Z,99150.84
2019-01-27T03:42:19.872Z,99149.24
2019-01-27T03:44:51.480Z,99152.27
2019-01-27T03:47:23.107Z,99150.40
2019-01-27T03:49:54.678Z,99138.28
2019-01-27T03:52:26.261Z,99135.33
2019-01-27T03:54:57.851Z,99126.92
2019-01-27T03:57:29.428Z,99120.77
2019-01-27T04:00:01.038Z,99121.62
2019-01-27T04:02:32.663Z,99113.39
2019-01-27T04:05:04.289Z,99110.27
2019-01-27T04:07:36.341Z,99107.54
2019-01-27T04:10:17.655Z,99108.11
2019-01-27T04:12:49.363Z,99103.75
2019-01-27T04:15:21.450Z,99098.16
2019-01-27T04:17:53.976Z,99089.37
2019-01-27T04:20:25.537Z,99092.02
2019-01-27T04:22:57.197Z,99080.66
2019-01-27T04:25:28.800Z,99080.28
2019-01-27T04:28:00.438Z,99075.67
2019-01-27T04:30:34.507Z,99075.75
2019-01-27T04:33:06.178Z,99074.42
2019-01-27T04:35:37.769Z,99070.16
2019-01-27T04:38:09.334Z,99067.12
2019-01-27T04:40:40.942Z,99057.85
2019-01-27T04:43:12.512Z,99051.69
2019-01-27T04:45:44.334Z,99044.61
2019-01-27T04:48:16.251Z,99043.39
2019-01-27T04:50:48.125Z,99040.37
2019-01-27T04:53:19.713Z,99039.42
2019-01-27T04:55:51.322Z,99041.02
2019-01-27T04:58:22.943Z,99039.95
2019-01-27T05:00:54.522Z,99034.95
2019-01-27T05:03:48.168Z,99041.45
2019-01-27T05:06:19.743Z,99035.66
2019-01-27T05:08:51.391Z,99039.37
2019-01-27T05:11:22.959Z,99037.30
2019-01-27T05:13:54.603Z,99026.88
2019-01-27T05:16:26.256Z,99014.45
2019-01-27T05:18:57.838Z,98995.52
2019-01-27T05:21:29.487Z,98996.47
2019-01-27T05:24:01.063Z,99004.34
2019-01-27T05:26:32.708Z,98994.56
2019-01-27T05:29:04.254Z,98994.37
2019-01-27T05:31:35.846Z,98997.84
2019-01-27T05:34:08.401Z,98993.55
2019-01-27T05:36:39.997Z,98995.05
2019-01-27T05:39:11.568Z,98992.12
2019-01-27T05:41:43.170Z,98988.39
2019-01-27T05:44:15.033Z,98986.55
2019-01-27T05:46:46.632Z,98983.41
2019-01-27T05:49:18.348Z,98973.83
2019-01-27T05:51:50.502Z,98969.61
2019-01-27T05:54:22.653Z,98967.70
2019-01-27T05:56:56.628Z,98973.73
2019-01-27T05:59:27.505Z,98972.91
2019-01-27T06:01:59.075Z,98977.17
2019-01-27T06:04:31.628Z,98969.67
2019-01-27T06:07:03.233Z,98966.06
2019-01-27T06:09:34.807Z,98968.42
2019-01-27T06:12:06.462Z,98968.05
2019-01-27T06:14:38.066Z,98981.77
2019-01-27T06:17:09.650Z,98973.20
2019-01-27T06:19:41.218Z,98963.70
2019-01-27T06:22:12.879Z,98964.28
2019-01-27T06:24:44.461Z,98966.86
2019-01-27T06:27:16.266Z,98966.59
2019-01-27T06:29:48.119Z,98966.91
2019-01-27T06:32:43.109Z,98970.19
2019-01-27T06:35:15.032Z,98966.83
2019-01-27T06:37:46.728Z,98969.68
2019-01-27T06:40:18.405Z,98966.27
2019-01-27T06:42:50.021Z,98961.04
2019-01-27T06:45:21.578Z,98957.30
2019-01-27T06:47:53.228Z,98941.06
2019-01-27T06:50:24.773Z,98937.25
2019-01-27T06:52:56.340Z,98936.13
2019-01-27T06:55:27.900Z,98937.66
2019-01-27T06:57:59.505Z,98934.17
2019-01-27T07:00:49.995Z,98925.87
2019-01-27T07:03:43.347Z,98929.67
2019-01-27T07:06:35.553Z,98930.22
2019-01-27T07:09:28.398Z,98922.31
2019-01-27T07:12:08.558Z,98915.89
2019-01-27T07:14:48.532Z,98916.33
2019-01-27T07:17:44.979Z,98916.20
2019-01-27T07:20:53.691Z,98918.78
2019-01-27T07:23:43.992Z,98912.14
2019-01-27T07:26:34.472Z,98901.09
2019-01-27T07:29:23.941Z,98901.47
2019-01-27T07:32:14.416Z,98894.91
2019-01-27T07:35:03.895Z,98887.95
2019-01-27T07:37:55.692Z,98886.63
2019-01-27T07:40:34.319Z,98887.54
2019-01-27T07:43:36.758Z,98893.59
2019-01-27T07:46:27.822Z,98885.26
2019-01-27T07:49:17.240Z,98874.86
2019-01-27T07:52:06.296Z,98874.28
2019-01-27T07:55:09.856Z,98862.92
2019-01-27T07:58:00.417Z,98863.70
2019-01-27T08:00:36.233Z,98859.63
2019-01-27T08:03:30.722Z,98858.66
2019-01-27T08:06:12.706Z,98862.29
2019-01-27T08:08:58.605Z,98857.69
2019-01-27T08:11:49.869Z,98853.71
2019-01-27T08:14:41.690Z,98854.33
2019-01-27T08:17:21.233Z,98859.63
2019-01-27T08:20:10.064Z,98850.93
2019-01-27T08:22:55.450Z,98851.06
2019-01-27T08:25:49.292Z,98851.23
2019-01-27T08:28:55.291Z,98847.73
2019-01-27T08:31:54.965Z,98843.22
2019-01-27T08:34:43.412Z,98833.69
2019-01-27T08:37:37.113Z,98834.64
2019-01-27T08:40:40.285Z,98828.05
2019-01-27T08:43:37.011Z,98822.13
2019-01-27T08:46:20.859Z,98823.70
2019-01-27T08:48:52.981Z,98823.92
2019-01-27T08:51:24.759Z,98824.91
2019-01-27T08:53:59.476Z,98816.50
2019-01-27T08:56:31.142Z,98822.25
2019-01-27T08:59:02.695Z,98824.53
2019-01-27T09:02:11.508Z,98819.90
2019-01-27T09:05:02.569Z,98822.92
2019-01-27T09:07:53.391Z,98814.50
2019-01-27T09:10:34.289Z,98812.52
2019-01-27T09:13:39.962Z,98815.57
2019-01-27T09:16:30.506Z,98812.48
2019-01-27T09:19:20.219Z,98806.73
2019-01-27T09:22:13.884Z,98805.88
2019-01-27T09:25:03.113Z,98803.35
2019-01-27T09:27:51.676Z,98800.64
2019-01-27T09:30:40.838Z,98797.52
2019-01-27T09:33:29.030Z,98797.53
2019-01-27T09:36:19.569Z,98789.34
2019-01-27T09:39:13.407Z,98780.66
2019-01-27T09:42:09.970Z,98778.32
2019-01-27T09:44:56.545Z,98780.71
2019-01-27T09:47:47.074Z,98777.83
2019-01-27T09:50:30.201Z,98780.16
2019-01-27T09:53:09.374Z,98780.25
2019-01-27T09:55:56.794Z,98778.55
2019-01-27T09:58:53.115Z,98784.98
2019-01-27T10:01:49.777Z,98773.77
2019-01-27T10:04:41.756Z,98768.69
2019-01-27T10:07:24.964Z,98761.27
2019-01-27T10:10:25.158Z,98750.97
2019-01-27T10:13:24.538Z,98758.44
2019-01-27T10:16:24.797Z,98753.11
2019-01-27T10:19:27.188Z,98747.70
2019-01-27T10:22:10.767Z,98746.61
2019-01-27T10:25:16.069Z,98737.89
2019-01-27T10:28:03.674Z,98736.58
2019-01-27T10:31:01.686Z,98737.48
2019-01-27T10:33:55.723Z,98731.20
2019-01-27T10:36:39.781Z,98727.69
2019-01-27T10:39:33.159Z,98729.61
2019-01-27T10:42:27.962Z,98727.45
2019-01-27T10:45:21.643Z,98722.27
2019-01-27T10:48:18.492Z,98721.77
2019-01-27T10:51:12.147Z,98705.92
2019-01-27T10:54:05.460Z,98695.79
2019-01-27T10:56:43.781Z,98699.08
2019-01-27T10:59:37.959Z,98690.99
2019-01-27T11:02:38.146Z,98689.30
2019-01-27T11:05:33.061Z,98683.49
2019-01-27T11:08:36.422Z,98682.87
2019-01-27T11:11:24.480Z,98682.99
2019-01-27T11:14:13.419Z,98681.06
2019-01-27T11:17:06.949Z,98670.33
2019-01-27T11:20:03.680Z,98659.42
2019-01-27T11:22:52.638Z,98656.17
2019-01-27T11:25:39.505Z,98650.84
2019-01-27T11:28:28.914Z,98646.74
2019-01-27T11:31:17.919Z,98654.57
2019-01-27T11:34:08.748Z,98638.64
2019-01-27T11:36:57.696Z,98638.06
2019-01-27T11:39:54.034Z,98631.63
2019-01-27T11:42:42.482Z,98626.34
2019-01-27T11:45:27.354Z,98617.38
2019-01-27T11:48:20.256Z,98620.78
2019-01-27T11:51:13.613Z,98616.30
2019-01-27T11:53:45.385Z,98622.70
2019-01-27T11:56:18.058Z,98614.25
2019-01-27T11:58:49.681Z,98614.23
2019-01-27T12:01:21.842Z,98608.09
2019-01-27T12:03:53.529Z,98608.33
2019-01-27T12:06:25.237Z,98604.84
2019-01-27T12:08:57.174Z,98601.31
2019-01-27T12:11:28.878Z,98599.27
2019-01-27T12:14:00.555Z,98592.02
2019-01-27T12:16:32.378Z,98588.50
2019-01-27T12:19:04.114Z,98594.30
2019-01-27T12:21:35.790Z,98589.13
2019-01-27T12:24:07.457Z,98587.08
2019-01-27T12:26:39.047Z,98587.91
2019-01-27T12:29:10.676Z,98590.58
2019-01-27T12:31:43.184Z,98597.22
2019-01-27T12:34:14.917Z,98594.06
2019-01-27T12:36:47.030Z,98585.63
2019-01-27T12:39:20.520Z,98590.80
2019-01-27T12:41:52.647Z,98588.16
2019-01-27T12:44:24.308Z,98576.92
2019-01-27T12:46:55.984Z,98567.17
2019-01-27T12:49:27.704Z,98574.04
2019-01-27T12:52:01.317Z,98567.50
2019-01-27T12:54:32.977Z,98570.44
2019-01-27T12:57:04.585Z,98569.22
2019-01-27T12:59:36.657Z,98567.66
2019-01-27T13:02:08.325Z,98568.77
2019-01-27T13:04:40.068Z,98565.05
2019-01-27T13:07:11.736Z,98561.05
2019-01-27T13:09:43.320Z,98557.78
2019-01-27T13:12:15.103Z,98550.05
2019-01-27T13:14:46.948Z,98552.22
2019-01-27T13:17:18.620Z,98549.23
2019-01-27T13:19:53.890Z,98544.25
2019-01-27T13:22:23.606Z,98541.94
2019-01-27T13:24:55.202Z,98541.47
2019-01-27T13:27:26.798Z,98544.23
2019-01-27T13:29:58.440Z,98533.08
2019-01-27T13:32:30.085Z,98531.25
2019-01-27T13:35:01.726Z,98520.11
2019-01-27T13:37:33.380Z,98516.08
2019-01-27T13:40:05.508Z,98511.98
2019-01-27T13:42:38.332Z,98501.61
2019-01-27T13:45:13.210Z,98499.95
2019-01-27T13:47:45.147Z,98506.41
2019-01-27T13:50:17.059Z,98501.08
2019-01-27T13:52:49.980Z,98503.59
2019-01-27T13:55:27.691Z,98501.79
2019-01-27T13:57:59.409Z,98497.39
2019-01-27T14:00:34.095Z,98492.23
2019-01-27T14:03:05.813Z,98497.20
2019-01-27T14:05:37.629Z,98493.38
2019-01-27T14:08:09.479Z,98495.16
2019-01-27T14:10:41.118Z,98496.73
2019-01-27T14:13:12.727Z,98500.84
2019-01-27T14:15:44.384Z,98500.02
2019-01-27T14:18:16.225Z,98491.09
2019-01-27T14:20:48.129Z,98494.40
2019-01-27T14:23:20.180Z,98496.59
2019-01-27T14:25:52.020Z,98489.97
2019-01-27T14:28:23.681Z,98489.38
2019-01-27T14:30:56.401Z,98495.92
2019-01-27T14:33:27.978Z,98492.15
2019-01-27T14:35:59.597Z,98491.81
2019-01-27T14:38:31.289Z,98496.31
2019-01-27T14:41:02.943Z,98493.18
2019-01-27T14:43:34.538Z,98495.38
2019-01-27T14:46:06.206Z,98492.84
2019-01-27T14:48:37.923Z,98486.68
2019-01-27T14:51:09.566Z,98489.34
2019-01-27T14:53:43.716Z,98482.95
2019-01-27T14:56:17.329Z,98481.63
2019-01-27T14:59:00.102Z,98471.33
2019-01-27T15:01:31.787Z,98478.92
2019-01-27T15:04:03.477Z,98478.20
2019-01-27T15:06:36.677Z,98474.45
2019-01-27T15:09:09.864Z,98468.55
2019-01-27T15:11:41.513Z,98462.73
2019-01-27T15:14:24.802Z,98460.07
2019-01-27T15:17:07.612Z,98454.50
2019-01-27T15:19:53.034Z,98450.73
2019-01-27T15:22:40.074Z,98456.41
2019-01-27T15:25:27.407Z,98464.42
2019-01-27T15:28:18.494Z,98462.26
2019-01-27T15:31:06.372Z,98463.70
2019-01-27T15:33:52.004Z,98466.85
2019-01-27T15:36:27.231Z,98465.39
2019-01-27T15:39:17.460Z,98468.30
2019-01-27T15:42:01.070Z,98461.76
2019-01-27T15:44:39.383Z,98468.91
2019-01-27T15:47:11.113Z,98470.81
2019-01-27T15:49:42.743Z,98473.11
2019-01-27T15:52:14.391Z,98467.05
2019-01-27T15:54:46.186Z,98460.41
2019-01-27T15:57:17.993Z,98459.80
2019-01-27T15:59:50.321Z,98462.81
2019-01-27T16:02:22.424Z,98458.94
2019-01-27T16:04:56.125Z,98463.90
2019-01-27T16:07:28.344Z,98463.77
2019-01-27T16:10:00.020Z,98462.81
2019-01-27T16:12:31.693Z,98469.83
2019-01-27T16:15:03.319Z,98471.52
2019-01-27T16:17:34.989Z,98468.85
2019-01-27T16:20:07.138Z,98467.30
2019-01-27T16:22:38.827Z,98461.73
2019-01-27T16:25:11.240Z,98455.81
2019-01-27T16:27:44.352Z,98459.22
2019-01-27T16:30:44.749Z,98459.71
2019-01-27T16:33:19.839Z,98456.58
2019-01-27T16:35:51.528Z,98453.92
2019-01-27T16:38:23.168Z,98451.50
2019-01-27T16:40:54.817Z,98447.91
2019-01-27T16:43:26.866Z,98447.80
2019-01-27T16:46:01.487Z,98443.81
2019-01-27T16:48:36.461Z,98441.84
2019-01-27T16:51:08.204Z,98437.86
2019-01-27T16:53:40.426Z,98433.04
2019-01-27T16:56:12.710Z,98431.57
2019-01-27T16:58:45.367Z,98432.90
2019-01-27T17:01:18.289Z,98435.56
2019-01-27T17:03:50.395Z,98432.90
2019-01-27T17:06:21.970Z,98439.08
2019-01-27T17:08:57.535Z,98436.78
2019-01-27T17:11:30.587Z,98434.84
2019-01-27T17:14:05.634Z,98427.34
2019-01-27T17:16:37.505Z,98429.78
2019-01-27T17:19:09.101Z,98438.11
2019-01-27T17:21:40.800Z,98432.30
2019-01-27T17:24:12.462Z,98426.98
2019-01-27T17:26:44.128Z,98425.41
2019-01-27T17:29:15.814Z,98436.50
2019-01-27T17:31:47.432Z,98440.61
2019-01-27T17:34:19.554Z,98438.09
2019-01-27T17:36:51.380Z,98439.14
2019-01-27T17:39:23.340Z,98436.98
2019-01-27T17:41:54.990Z,98436.40
2019-01-27T17:44:26.662Z,98434.79
2019-01-27T17:46:58.286Z,98435.29
2019-01-27T17:49:29.926Z,98430.08
2019-01-27T17:52:01.561Z,98427.34
2019-01-27T17:54:33.236Z,98425.66
2019-01-27T17:57:14.921Z,98423.44
2019-01-27T18:00:11.346Z,98426.38
2019-01-27T18:02:55.135Z,98428.53
2019-01-27T18:05:37.730Z,98423.96
2019-01-27T18:08:17.503Z,98416.35
2019-01-27T18:10:54.076Z,98414.13
2019-01-27T18:13:37.180Z,98423.72
2019-01-27T18:16:13.457Z,98425.16
2019-01-27T18:18:45.830Z,98435.06
2019-01-27T18:21:20.326Z,98428.17
2019-01-27T18:23:52.791Z,98439.75
2019-01-27T18:26:25.144Z,98429.75
2019-01-27T18:28:58.254Z,98432.24
2019-01-27T18:31:31.008Z,98429.72
2019-01-27T18:34:02.687Z,98428.39
2019-01-27T18:36:34.394Z,98425.13
2019-01-27T18:39:09.971Z,98429.72
2019-01-27T18:41:42.211Z,98424.88
2019-01-27T18:44:13.863Z,98419.20
2019-01-27T18:46:45.552Z,98424.52
2019-01-27T18:49:17.426Z,98425.48
2019-01-27T18:51:49.111Z,98422.22
2019-01-27T18:54:38.367Z,98417.88
2019-01-27T18:57:33.753Z,98417.38
2019-01-27T19:00:32.957Z,98424.02
2019-01-27T19:03:09.954Z,98418.56
2019-01-27T19:05:46.170Z,98424.48
2019-01-27T19:08:25.155Z,98424.16
2019-01-27T19:11:15.659Z,98420.36
2019-01-27T19:14:24.310Z,98428.11
2019-01-27T19:17:17.463Z,98433.22
2019-01-27T19:20:08.652Z,98425.56
2019-01-27T19:22:55.285Z,98424.98
2019-01-27T19:25:39.485Z,98417.88
2019-01-27T19:28:26.916Z,98426.52
2019-01-27T19:31:17.830Z,98425.42
2019-01-27T19:34:17.401Z,98419.03
2019-01-27T19:37:07.412Z,98417.95
2019-01-27T19:40:05.021Z,98423.51
2019-01-27T19:42:58.723Z,98419.78
2019-01-27T19:45:54.433Z,98424.73
2019-01-27T19:48:47.405Z,98428.33
2019-01-27T19:51:42.244Z,98425.42
2019-01-27T19:54:31.538Z,98427.72
2019-01-27T19:57:15.435Z,98431.58
2019-01-27T20:00:02.837Z,98426.98
2019-01-27T20:02:54.804Z,98426.27
2019-01-27T20:05:45.430Z,98425.41
2019-01-27T20:08:42.027Z,98428.42
2019-01-27T20:11:31.629Z,98429.03
2019-01-27T20:14:35.250Z,98427.23
2019-01-27T20:17:29.395Z,98429.78
2019-01-27T20:20:16.431Z,98438.69
2019-01-27T20:23:01.384Z,98439.77
2019-01-27T20:25:52.000Z,98444.02
2019-01-27T20:28:31.634Z,98443.38
2019-01-27T20:31:19.427Z,98440.47
2019-01-27T20:34:09.471Z,98439.86
2019-01-27T20:36:58.591Z,98443.73
2019-01-27T20:39:37.263Z,98442.30
2019-01-27T20:42:34.633Z,98443.63
2019-01-27T20:45:21.364Z,98438.89
2019-01-27T20:48:04.749Z,98447.11
2019-01-27T20:50:53.656Z,98439.64
2019-01-27T20:53:42.742Z,98447.36
2019-01-27T20:56:27.468Z,98436.95
2019-01-27T20:59:12.749Z,98439.25
2019-01-27T21:02:00.393Z,98438.89
2019-01-27T21:04:49.385Z,98436.48
2019-01-27T21:07:53.574Z,98442.98
2019-01-27T21:10:59.068Z,98438.28
2019-01-27T21:13:49.962Z,98434.65
2019-01-27T21:16:37.808Z,98430.20
2019-01-27T21:19:16.496Z,98426.81
2019-01-27T21:21:48.354Z,98438.78
2019-01-27T21:24:20.343Z,98438.17
2019-01-27T21:26:52.037Z,98428.72
2019-01-27T21:29:23.996Z,98431.38
2019-01-27T21:31:55.723Z,98434.79
2019-01-27T21:34:27.397Z,98435.16
2019-01-27T21:36:59.230Z,98440.83
2019-01-27T21:39:31.007Z,98437.70
2019-01-27T21:42:02.673Z,98442.98
2019-01-27T21:44:34.351Z,98451.58
2019-01-27T21:47:06.030Z,98442.16
2019-01-27T21:49:37.692Z,98449.30
2019-01-27T21:52:09.284Z,98451.70
2019-01-27T21:54:40.937Z,98451.02
2019-01-27T21:57:12.614Z,98447.28
2019-01-27T21:59:44.275Z,98448.47
2019-01-27T22:02:16.886Z,98452.95
2019-01-27T22:04:48.526Z,98452.48
2019-01-27T22:07:20.250Z,98455.75
2019-01-27T22:09:52.034Z,98448.72
2019-01-27T22:12:23.945Z,98452.23
2019-01-27T22:14:55.525Z,98450.07
2019-01-27T22:17:27.230Z,98451.64
2019-01-27T22:19:58.891Z,98455.29
2019-01-27T22:22:30.544Z,98457.82
2019-01-27T22:25:02.118Z,98455.80
2019-01-27T22:27:33.937Z,98454.81
2019-01-27T22:30:06.874Z,98452.05
2019-01-27T22:32:38.536Z,98453.38
2019-01-27T22:35:11.083Z,98457.50
2019-01-27T22:37:42.746Z,98456.88
2019-01-27T22:40:15.350Z,98461.95
2019-01-27T22:42:47.322Z,98446.77
2019-01-27T22:45:19.220Z,98454.59
2019-01-27T22:47:51.152Z,98451.46
2019-01-27T22:50:22.785Z,98458.95
2019-01-27T22:52:54.342Z,98454.73
2019-01-27T22:55:25.984Z,98454.72
2019-01-27T22:57:57.553Z,98456.91
2019-01-27T23:00:58.582Z,98453.87
2019-01-27T23:03:32.996Z,98456.77
2019-01-27T23:06:04.637Z,98462.67
2019-01-27T23:08:36.305Z,98461.97
2019-01-27T23:11:08.970Z,98459.92
2019-01-27T23:13:40.604Z,98464.38
2019-01-27T23:16:12.237Z,98466.91
2019-01-27T23:18:43.868Z,98461.34
2019-01-27T23:21:15.486Z,98465.92
2019-01-27T23:23:47.342Z,98472.79
2019-01-27T23:26:19.210Z,98463.63
2019-01-27T23:28:51.151Z,98465.19
2019-01-27T23:31:22.785Z,98460.48
2019-01-27T23:33:54.358Z,98459.62
2019-01-27T23:36:25.994Z,98464.55
2019-01-27T23:38:57.656Z,98469.96
2019-01-27T23:41:29.225Z,98464.88
2019-01-27T23:44:00.884Z,98459.94
2019-01-27T23:46:32.525Z,98458.84
2019-01-27T23:49:04.115Z,98462.31
2019-01-27T23:51:35.755Z,98464.83
2019-01-27T23:54:07.400Z,98461.49
2019-01-27T23:56:39.039Z,98467.17
2019-01-27T23:59:10.614Z,98468.85
